Etusivu
METAR-TAF:

METAR-TAF

Lentoasemat :

Albion Municipal Airport

Albion, Nebraska, Yhdysvallat

Leveyspiiri: 41-43-42N, Pituuspiiri: 098-03-20W, korkeus merenpinnasta: 551 m

Tämänhetkinen sää

Tämä raportti tehtiin 32 minuuttia sitten, kello 12.35 UTC
tyyntä
Lämpötila 16°C
Kosteus 100%
Ilmanpaine 1024 hPa
Näkyvyys: 16.1 km
Pilvistä 10000 ft:n korkeudessa

METAR: KBVN 191235Z AUTO 00000KT 10SM OVC100 16/16 A3024 RMK AO2 T01610155

Aika: 08:07 (13:07 UTC)


TAF: puuttuu

Säähavainnot ja -ennusteet yli 4000 lentoasemalta (METAR- ja TAF-raportit).

Käytössä olevat sääasemat on merkitty karttaan keltaisilla ja punaisilla pisteillä.

Aseta hiiri pisteen päälle nähdäksesi sääaseman nimen.

Klikkaa sitten nähdäksesi säähavainnot ja -ennusteet.

Kartan vaihtaminen: klikkaa mustalla rastilla varustettuja vihreitä pisteitä, niin voit zoomata sisään; viivalla varustettua vihreää pistettä, niin voit zoomata ulos tai vihreitä nuolia, niin pääset viereisille kartoille.


METAR-TAF: